sensor_id;sensor_type;location;lat;lon;timestamp;P1;durP1;ratioP1;P2;durP2;ratioP2
3491;SDS011;1760;52.480;13.422;2024-02-15T00:01:08;18.50;;;8.60;;
3491;SDS011;1760;52.480;13.422;2024-02-15T00:03:35;66.53;;;27.80;;
3491;SDS011;1760;52.480;13.422;2024-02-15T00:06:02;12.73;;;8.33;;
3491;SDS011;1760;52.480;13.422;2024-02-15T00:08:29;10.47;;;6.03;;
3491;SDS011;1760;52.480;13.422;2024-02-15T00:10:59;10.90;;;7.90;;
3491;SDS011;1760;52.480;13.422;2024-02-15T00:13:26;11.03;;;7.70;;
3491;SDS011;1760;52.480;13.422;2024-02-15T00:15:53;8.23;;;6.07;;
3491;SDS011;1760;52.480;13.422;2024-02-15T00:18:20;7.40;;;5.73;;
3491;SDS011;1760;52.480;13.422;2024-02-15T00:20:55;6.73;;;5.70;;
3491;SDS011;1760;52.480;13.422;2024-02-15T00:23:46;10.40;;;5.83;;
3491;SDS011;1760;52.480;13.422;2024-02-15T00:26:37;8.50;;;6.77;;
3491;SDS011;1760;52.480;13.422;2024-02-15T00:29:04;8.83;;;6.30;;
3491;SDS011;1760;52.480;13.422;2024-02-15T00:31:31;6.97;;;6.17;;
3491;SDS011;1760;52.480;13.422;2024-02-15T00:33:58;6.60;;;5.70;;
3491;SDS011;1760;52.480;13.422;2024-02-15T00:36:27;10.43;;;6.53;;
3491;SDS011;1760;52.480;13.422;2024-02-15T00:38:54;10.47;;;6.87;;
3491;SDS011;1760;52.480;13.422;2024-02-15T00:41:21;7.50;;;6.73;;
3491;SDS011;1760;52.480;13.422;2024-02-15T00:43:49;7.70;;;6.70;;
3491;SDS011;1760;52.480;13.422;2024-02-15T00:46:16;10.30;;;7.27;;
3491;SDS011;1760;52.480;13.422;2024-02-15T00:48:43;9.50;;;7.13;;
3491;SDS011;1760;52.480;13.422;2024-02-15T00:51:10;8.83;;;6.67;;
3491;SDS011;1760;52.480;13.422;2024-02-15T00:53:37;11.60;;;5.83;;
3491;SDS011;1760;52.480;13.422;2024-02-15T00:56:07;11.93;;;7.00;;
3491;SDS011;1760;52.480;13.422;2024-02-15T00:58:35;9.90;;;7.03;;
3491;SDS011;1760;52.480;13.422;2024-02-15T01:01:06;8.67;;;7.10;;
3491;SDS011;1760;52.480;13.422;2024-02-15T01:03:33;9.17;;;6.50;;
3491;SDS011;1760;52.480;13.422;2024-02-15T01:06:01;8.83;;;6.80;;
3491;SDS011;1760;52.480;13.422;2024-02-15T01:08:30;10.27;;;8.30;;
3491;SDS011;1760;52.480;13.422;2024-02-15T01:10:59;11.97;;;7.00;;
3491;SDS011;1760;52.480;13.422;2024-02-15T01:13:29;8.70;;;7.73;;
3491;SDS011;1760;52.480;13.422;2024-02-15T01:15:59;12.40;;;7.87;;
3491;SDS011;1760;52.480;13.422;2024-02-15T01:18:32;7.93;;;6.27;;
3491;SDS011;1760;52.480;13.422;2024-02-15T01:21:00;11.43;;;7.40;;
3491;SDS011;1760;52.480;13.422;2024-02-15T01:23:26;10.10;;;7.40;;
3491;SDS011;1760;52.480;13.422;2024-02-15T01:25:54;9.60;;;6.93;;
3491;SDS011;1760;52.480;13.422;2024-02-15T01:28:21;11.33;;;8.13;;
3491;SDS011;1760;52.480;13.422;2024-02-15T01:30:48;9.90;;;8.90;;
3491;SDS011;1760;52.480;13.422;2024-02-15T01:33:16;8.77;;;7.07;;
3491;SDS011;1760;52.480;13.422;2024-02-15T01:35:45;10.93;;;7.57;;
3491;SDS011;1760;52.480;13.422;2024-02-15T01:38:14;9.10;;;7.10;;
3491;SDS011;1760;52.480;13.422;2024-02-15T01:40:43;13.93;;;8.47;;
3491;SDS011;1760;52.480;13.422;2024-02-15T01:43:12;8.60;;;6.70;;
3491;SDS011;1760;52.480;13.422;2024-02-15T01:45:38;10.33;;;8.30;;
3491;SDS011;1760;52.480;13.422;2024-02-15T01:48:06;8.37;;;6.00;;
3491;SDS011;1760;52.480;13.422;2024-02-15T01:50:33;7.83;;;7.03;;
3491;SDS011;1760;52.480;13.422;2024-02-15T01:53:02;14.43;;;7.83;;
3491;SDS011;1760;52.480;13.422;2024-02-15T01:55:44;11.33;;;10.13;;
3491;SDS011;1760;52.480;13.422;2024-02-15T01:58:11;12.77;;;6.90;;
3491;SDS011;1760;52.480;13.422;2024-02-15T02:00:39;11.07;;;6.87;;
3491;SDS011;1760;52.480;13.422;2024-02-15T02:03:06;9.80;;;7.63;;
3491;SDS011;1760;52.480;13.422;2024-02-15T02:05:36;9.50;;;7.30;;
3491;SDS011;1760;52.480;13.422;2024-02-15T02:08:05;11.00;;;8.13;;
3491;SDS011;1760;52.480;13.422;2024-02-15T02:10:34;9.17;;;6.90;;
3491;SDS011;1760;52.480;13.422;2024-02-15T02:13:01;10.77;;;8.03;;
3491;SDS011;1760;52.480;13.422;2024-02-15T02:15:28;12.80;;;8.60;;
3491;SDS011;1760;52.480;13.422;2024-02-15T02:17:57;14.20;;;9.73;;
3491;SDS011;1760;52.480;13.422;2024-02-15T02:20:25;9.93;;;8.27;;
3491;SDS011;1760;52.480;13.422;2024-02-15T02:22:53;10.03;;;7.47;;
3491;SDS011;1760;52.480;13.422;2024-02-15T02:25:26;11.57;;;8.73;;
3491;SDS011;1760;52.480;13.422;2024-02-15T02:27:53;15.70;;;9.00;;
3491;SDS011;1760;52.480;13.422;2024-02-15T02:30:22;12.47;;;8.40;;
3491;SDS011;1760;52.480;13.422;2024-02-15T02:32:48;15.83;;;9.30;;
3491;SDS011;1760;52.480;13.422;2024-02-15T02:35:15;11.97;;;9.07;;
3491;SDS011;1760;52.480;13.422;2024-02-15T02:37:42;15.20;;;9.17;;
3491;SDS011;1760;52.480;13.422;2024-02-15T02:40:11;11.10;;;8.70;;
3491;SDS011;1760;52.480;13.422;2024-02-15T02:42:47;14.50;;;9.87;;
3491;SDS011;1760;52.480;13.422;2024-02-15T02:45:16;11.77;;;9.27;;
3491;SDS011;1760;52.480;13.422;2024-02-15T02:47:44;14.20;;;9.50;;
3491;SDS011;1760;52.480;13.422;2024-02-15T02:50:15;15.70;;;9.97;;
3491;SDS011;1760;52.480;13.422;2024-02-15T02:52:42;14.50;;;9.23;;
3491;SDS011;1760;52.480;13.422;2024-02-15T02:55:09;14.73;;;9.90;;
3491;SDS011;1760;52.480;13.422;2024-02-15T02:57:36;13.00;;;8.50;;
3491;SDS011;1760;52.480;13.422;2024-02-15T03:00:06;13.13;;;9.30;;
3491;SDS011;1760;52.480;13.422;2024-02-15T03:02:37;12.47;;;9.13;;
3491;SDS011;1760;52.480;13.422;2024-02-15T03:05:04;10.60;;;8.70;;
3491;SDS011;1760;52.480;13.422;2024-02-15T03:07:33;11.60;;;9.50;;
3491;SDS011;1760;52.480;13.422;2024-02-15T03:10:00;14.60;;;10.27;;
3491;SDS011;1760;52.480;13.422;2024-02-15T03:12:33;12.33;;;9.20;;
3491;SDS011;1760;52.480;13.422;2024-02-15T03:15:01;15.87;;;9.20;;
3491;SDS011;1760;52.480;13.422;2024-02-15T03:17:29;18.40;;;9.53;;
3491;SDS011;1760;52.480;13.422;2024-02-15T03:19:56;11.20;;;8.53;;
3491;SDS011;1760;52.480;13.422;2024-02-15T03:22:23;12.30;;;8.20;;
3491;SDS011;1760;52.480;13.422;2024-02-15T03:24:51;12.50;;;10.13;;
3491;SDS011;1760;52.480;13.422;2024-02-15T03:27:19;11.93;;;8.77;;
3491;SDS011;1760;52.480;13.422;2024-02-15T03:29:48;11.17;;;8.60;;
3491;SDS011;1760;52.480;13.422;2024-02-15T03:32:16;12.80;;;9.10;;
3491;SDS011;1760;52.480;13.422;2024-02-15T03:34:44;12.83;;;9.03;;
3491;SDS011;1760;52.480;13.422;2024-02-15T03:37:13;10.37;;;8.33;;
3491;SDS011;1760;52.480;13.422;2024-02-15T03:39:45;17.10;;;9.70;;
3491;SDS011;1760;52.480;13.422;2024-02-15T03:42:15;13.57;;;9.40;;
3491;SDS011;1760;52.480;13.422;2024-02-15T03:44:45;18.27;;;9.97;;
3491;SDS011;1760;52.480;13.422;2024-02-15T03:47:14;11.70;;;8.90;;
3491;SDS011;1760;52.480;13.422;2024-02-15T03:49:42;13.70;;;8.70;;
3491;SDS011;1760;52.480;13.422;2024-02-15T03:52:10;12.87;;;9.43;;
3491;SDS011;1760;52.480;13.422;2024-02-15T03:54:37;11.83;;;8.83;;
3491;SDS011;1760;52.480;13.422;2024-02-15T03:57:04;12.73;;;8.43;;
3491;SDS011;1760;52.480;13.422;2024-02-15T03:59:31;11.03;;;8.77;;
3491;SDS011;1760;52.480;13.422;2024-02-15T04:02:00;14.80;;;10.00;;
3491;SDS011;1760;52.480;13.422;2024-02-15T04:04:28;11.43;;;9.10;;
3491;SDS011;1760;52.480;13.422;2024-02-15T04:06:55;12.77;;;8.57;;
3491;SDS011;1760;52.480;13.422;2024-02-15T04:09:23;16.57;;;9.90;;
3491;SDS011;1760;52.480;13.422;2024-02-15T04:11:53;12.20;;;9.83;;
3491;SDS011;1760;52.480;13.422;2024-02-15T04:14:22;16.07;;;10.30;;
3491;SDS011;1760;52.480;13.422;2024-02-15T04:16:50;11.73;;;9.40;;
3491;SDS011;1760;52.480;13.422;2024-02-15T04:19:19;13.93;;;10.20;;
3491;SDS011;1760;52.480;13.422;2024-02-15T04:21:47;18.67;;;10.37;;
3491;SDS011;1760;52.480;13.422;2024-02-15T04:24:15;15.30;;;10.13;;
3491;SDS011;1760;52.480;13.422;2024-02-15T04:26:44;14.67;;;9.87;;
3491;SDS011;1760;52.480;13.422;2024-02-15T04:29:13;12.07;;;9.30;;
3491;SDS011;1760;52.480;13.422;2024-02-15T04:31:41;15.37;;;10.03;;
3491;SDS011;1760;52.480;13.422;2024-02-15T04:34:08;17.17;;;10.50;;
3491;SDS011;1760;52.480;13.422;2024-02-15T04:36:36;15.87;;;9.23;;
3491;SDS011;1760;52.480;13.422;2024-02-15T04:39:02;16.40;;;9.90;;
3491;SDS011;1760;52.480;13.422;2024-02-15T04:41:31;18.50;;;9.80;;
3491;SDS011;1760;52.480;13.422;2024-02-15T04:43:59;14.67;;;10.30;;
3491;SDS011;1760;52.480;13.422;2024-02-15T04:46:28;15.90;;;10.27;;
3491;SDS011;1760;52.480;13.422;2024-02-15T04:48:55;16.33;;;9.40;;
3491;SDS011;1760;52.480;13.422;2024-02-15T04:51:23;13.50;;;9.60;;
3491;SDS011;1760;52.480;13.422;2024-02-15T04:53:52;13.97;;;10.10;;
3491;SDS011;1760;52.480;13.422;2024-02-15T04:56:19;12.73;;;10.10;;
3491;SDS011;1760;52.480;13.422;2024-02-15T04:58:48;16.90;;;11.83;;
3491;SDS011;1760;52.480;13.422;2024-02-15T05:01:17;15.13;;;9.57;;
3491;SDS011;1760;52.480;13.422;2024-02-15T05:03:44;14.73;;;9.60;;
3491;SDS011;1760;52.480;13.422;2024-02-15T05:06:11;13.33;;;9.03;;
3491;SDS011;1760;52.480;13.422;2024-02-15T05:08:39;12.07;;;8.30;;
3491;SDS011;1760;52.480;13.422;2024-02-15T05:11:12;13.90;;;9.00;;
3491;SDS011;1760;52.480;13.422;2024-02-15T05:13:42;13.00;;;9.40;;
3491;SDS011;1760;52.480;13.422;2024-02-15T05:16:09;15.60;;;9.97;;
3491;SDS011;1760;52.480;13.422;2024-02-15T05:18:38;11.93;;;9.23;;
3491;SDS011;1760;52.480;13.422;2024-02-15T05:21:05;16.20;;;10.40;;
3491;SDS011;1760;52.480;13.422;2024-02-15T05:23:34;15.80;;;9.40;;
3491;SDS011;1760;52.480;13.422;2024-02-15T05:26:01;15.00;;;9.30;;
3491;SDS011;1760;52.480;13.422;2024-02-15T05:28:28;12.70;;;8.33;;
3491;SDS011;1760;52.480;13.422;2024-02-15T05:31:08;11.03;;;8.03;;
3491;SDS011;1760;52.480;13.422;2024-02-15T05:33:43;14.90;;;9.70;;
3491;SDS011;1760;52.480;13.422;2024-02-15T05:36:12;14.27;;;9.77;;
3491;SDS011;1760;52.480;13.422;2024-02-15T05:38:39;15.30;;;8.37;;
3491;SDS011;1760;52.480;13.422;2024-02-15T05:41:07;12.73;;;9.30;;
3491;SDS011;1760;52.480;13.422;2024-02-15T05:43:33;13.20;;;9.00;;
3491;SDS011;1760;52.480;13.422;2024-02-15T05:46:03;14.10;;;10.27;;
3491;SDS011;1760;52.480;13.422;2024-02-15T05:48:31;11.47;;;8.37;;
3491;SDS011;1760;52.480;13.422;2024-02-15T05:51:01;14.40;;;8.70;;
3491;SDS011;1760;52.480;13.422;2024-02-15T05:53:28;15.67;;;8.10;;
3491;SDS011;1760;52.480;13.422;2024-02-15T05:55:55;11.77;;;8.40;;
3491;SDS011;1760;52.480;13.422;2024-02-15T05:58:23;10.70;;;7.53;;
3491;SDS011;1760;52.480;13.422;2024-02-15T06:00:50;10.53;;;7.90;;
3491;SDS011;1760;52.480;13.422;2024-02-15T06:03:18;12.10;;;7.80;;
3491;SDS011;1760;52.480;13.422;2024-02-15T06:05:47;11.40;;;7.63;;
3491;SDS011;1760;52.480;13.422;2024-02-15T06:08:18;12.53;;;9.03;;
3491;SDS011;1760;52.480;13.422;2024-02-15T06:10:48;12.03;;;7.67;;
3491;SDS011;1760;52.480;13.422;2024-02-15T06:13:15;10.30;;;7.90;;
3491;SDS011;1760;52.480;13.422;2024-02-15T06:15:42;11.17;;;8.37;;
3491;SDS011;1760;52.480;13.422;2024-02-15T06:18:09;12.03;;;7.27;;
3491;SDS011;1760;52.480;13.422;2024-02-15T06:20:39;12.47;;;8.27;;
3491;SDS011;1760;52.480;13.422;2024-02-15T06:23:08;13.40;;;7.60;;
3491;SDS011;1760;52.480;13.422;2024-02-15T06:25:36;13.30;;;7.47;;
3491;SDS011;1760;52.480;13.422;2024-02-15T06:28:03;10.93;;;8.10;;
3491;SDS011;1760;52.480;13.422;2024-02-15T06:30:38;10.37;;;7.50;;
3491;SDS011;1760;52.480;13.422;2024-02-15T06:33:23;11.13;;;7.63;;
3491;SDS011;1760;52.480;13.422;2024-02-15T06:36:07;15.00;;;9.17;;
3491;SDS011;1760;52.480;13.422;2024-02-15T06:38:52;13.00;;;10.07;;
3491;SDS011;1760;52.480;13.422;2024-02-15T06:41:37;15.60;;;9.37;;
3491;SDS011;1760;52.480;13.422;2024-02-15T06:44:05;11.43;;;7.57;;
3491;SDS011;1760;52.480;13.422;2024-02-15T06:46:32;10.57;;;7.20;;
3491;SDS011;1760;52.480;13.422;2024-02-15T06:48:59;13.20;;;8.67;;
3491;SDS011;1760;52.480;13.422;2024-02-15T06:51:26;17.87;;;7.80;;
3491;SDS011;1760;52.480;13.422;2024-02-15T06:53:53;18.80;;;8.53;;
3491;SDS011;1760;52.480;13.422;2024-02-15T06:56:21;16.43;;;8.63;;
3491;SDS011;1760;52.480;13.422;2024-02-15T06:58:49;16.97;;;8.30;;
3491;SDS011;1760;52.480;13.422;2024-02-15T07:01:16;15.93;;;8.60;;
3491;SDS011;1760;52.480;13.422;2024-02-15T07:03:43;18.00;;;9.43;;
3491;SDS011;1760;52.480;13.422;2024-02-15T07:06:10;14.17;;;8.83;;
3491;SDS011;1760;52.480;13.422;2024-02-15T07:08:39;16.50;;;10.23;;
3491;SDS011;1760;52.480;13.422;2024-02-15T07:11:06;13.47;;;8.53;;
3491;SDS011;1760;52.480;13.422;2024-02-15T07:13:35;13.47;;;8.90;;
3491;SDS011;1760;52.480;13.422;2024-02-15T07:16:05;14.47;;;9.30;;
3491;SDS011;1760;52.480;13.422;2024-02-15T07:18:33;18.23;;;11.20;;
3491;SDS011;1760;52.480;13.422;2024-02-15T07:21:00;20.40;;;11.57;;
3491;SDS011;1760;52.480;13.422;2024-02-15T07:23:29;15.13;;;10.27;;
3491;SDS011;1760;52.480;13.422;2024-02-15T07:25:55;15.23;;;10.10;;
3491;SDS011;1760;52.480;13.422;2024-02-15T07:28:23;12.50;;;8.67;;
3491;SDS011;1760;52.480;13.422;2024-02-15T07:30:52;13.00;;;8.90;;
3491;SDS011;1760;52.480;13.422;2024-02-15T07:33:23;14.17;;;8.83;;
3491;SDS011;1760;52.480;13.422;2024-02-15T07:35:50;20.47;;;9.90;;
3491;SDS011;1760;52.480;13.422;2024-02-15T07:38:17;15.67;;;9.07;;
3491;SDS011;1760;52.480;13.422;2024-02-15T07:40:44;14.00;;;9.00;;
3491;SDS011;1760;52.480;13.422;2024-02-15T07:43:10;15.50;;;9.23;;
3491;SDS011;1760;52.480;13.422;2024-02-15T07:45:38;11.73;;;8.23;;
3491;SDS011;1760;52.480;13.422;2024-02-15T07:48:05;16.17;;;10.87;;
3491;SDS011;1760;52.480;13.422;2024-02-15T07:50:34;14.60;;;10.80;;
3491;SDS011;1760;52.480;13.422;2024-02-15T07:53:02;13.27;;;9.23;;
3491;SDS011;1760;52.480;13.422;2024-02-15T07:55:33;13.13;;;8.77;;
3491;SDS011;1760;52.480;13.422;2024-02-15T07:58:00;16.60;;;11.10;;
3491;SDS011;1760;52.480;13.422;2024-02-15T08:00:27;17.10;;;9.37;;
3491;SDS011;1760;52.480;13.422;2024-02-15T08:02:54;15.53;;;10.83;;
3491;SDS011;1760;52.480;13.422;2024-02-15T08:05:22;12.13;;;9.10;;
3491;SDS011;1760;52.480;13.422;2024-02-15T08:07:50;19.60;;;11.40;;
3491;SDS011;1760;52.480;13.422;2024-02-15T08:10:22;16.00;;;13.73;;
3491;SDS011;1760;52.480;13.422;2024-02-15T08:12:49;34.50;;;30.50;;
3491;SDS011;1760;52.480;13.422;2024-02-15T08:15:18;36.10;;;31.43;;
3491;SDS011;1760;52.480;13.422;2024-02-15T08:17:45;38.07;;;34.17;;
3491;SDS011;1760;52.480;13.422;2024-02-15T08:20:12;25.30;;;21.90;;
3491;SDS011;1760;52.480;13.422;2024-02-15T08:22:44;33.80;;;25.30;;
3491;SDS011;1760;52.480;13.422;2024-02-15T08:25:12;39.23;;;35.10;;
3491;SDS011;1760;52.480;13.422;2024-02-15T08:27:40;77.07;;;62.20;;
3491;SDS011;1760;52.480;13.422;2024-02-15T08:30:09;55.37;;;40.47;;
3491;SDS011;1760;52.480;13.422;2024-02-15T08:32:38;26.20;;;18.73;;
3491;SDS011;1760;52.480;13.422;2024-02-15T08:35:07;28.57;;;19.20;;
3491;SDS011;1760;52.480;13.422;2024-02-15T08:37:35;24.47;;;17.17;;
3491;SDS011;1760;52.480;13.422;2024-02-15T08:40:03;47.87;;;31.57;;
3491;SDS011;1760;52.480;13.422;2024-02-15T08:42:37;62.53;;;42.20;;
3491;SDS011;1760;52.480;13.422;2024-02-15T08:45:05;48.90;;;31.87;;
3491;SDS011;1760;52.480;13.422;2024-02-15T08:47:34;38.00;;;26.70;;
3491;SDS011;1760;52.480;13.422;2024-02-15T08:50:02;23.17;;;18.30;;
3491;SDS011;1760;52.480;13.422;2024-02-15T08:52:30;32.70;;;24.20;;
3491;SDS011;1760;52.480;13.422;2024-02-15T08:54:57;21.83;;;15.93;;
3491;SDS011;1760;52.480;13.422;2024-02-15T08:57:25;26.37;;;19.97;;
3491;SDS011;1760;52.480;13.422;2024-02-15T08:59:54;38.10;;;30.10;;
3491;SDS011;1760;52.480;13.422;2024-02-15T09:02:21;48.13;;;38.50;;
3491;SDS011;1760;52.480;13.422;2024-02-15T09:04:47;41.57;;;28.57;;
3491;SDS011;1760;52.480;13.422;2024-02-15T09:07:14;69.20;;;49.37;;
3491;SDS011;1760;52.480;13.422;2024-02-15T09:09:41;44.70;;;31.67;;
3491;SDS011;1760;52.480;13.422;2024-02-15T09:12:08;55.80;;;32.00;;
3491;SDS011;1760;52.480;13.422;2024-02-15T09:14:35;51.73;;;32.03;;
3491;SDS011;1760;52.480;13.422;2024-02-15T09:17:04;76.30;;;46.40;;
3491;SDS011;1760;52.480;13.422;2024-02-15T09:19:32;63.47;;;38.63;;
3491;SDS011;1760;52.480;13.422;2024-02-15T09:21:59;57.80;;;36.13;;
3491;SDS011;1760;52.480;13.422;2024-02-15T09:24:26;51.20;;;29.10;;
3491;SDS011;1760;52.480;13.422;2024-02-15T09:26:54;35.63;;;22.37;;
3491;SDS011;1760;52.480;13.422;2024-02-15T09:29:21;31.90;;;19.43;;
3491;SDS011;1760;52.480;13.422;2024-02-15T09:31:49;19.67;;;13.70;;
3491;SDS011;1760;52.480;13.422;2024-02-15T09:34:19;18.60;;;14.20;;
3491;SDS011;1760;52.480;13.422;2024-02-15T09:36:46;13.37;;;10.30;;
3491;SDS011;1760;52.480;13.422;2024-02-15T09:39:13;13.80;;;9.90;;
3491;SDS011;1760;52.480;13.422;2024-02-15T09:41:39;20.33;;;12.80;;
3491;SDS011;1760;52.480;13.422;2024-02-15T09:44:08;16.70;;;11.93;;
3491;SDS011;1760;52.480;13.422;2024-02-15T09:46:35;20.10;;;15.57;;
3491;SDS011;1760;52.480;13.422;2024-02-15T09:49:10;17.50;;;11.33;;
3491;SDS011;1760;52.480;13.422;2024-02-15T09:51:39;22.87;;;15.10;;
3491;SDS011;1760;52.480;13.422;2024-02-15T09:54:07;141.33;;;74.77;;
3491;SDS011;1760;52.480;13.422;2024-02-15T09:56:35;129.23;;;64.03;;
3491;SDS011;1760;52.480;13.422;2024-02-15T09:59:02;99.43;;;63.13;;
3491;SDS011;1760;52.480;13.422;2024-02-15T10:01:31;72.83;;;46.23;;
3491;SDS011;1760;52.480;13.422;2024-02-15T10:04:00;59.30;;;40.60;;
3491;SDS011;1760;52.480;13.422;2024-02-15T10:06:31;59.10;;;36.67;;
3491;SDS011;1760;52.480;13.422;2024-02-15T10:11:55;44.13;;;30.20;;
3491;SDS011;1760;52.480;13.422;2024-02-15T10:14:22;77.00;;;49.17;;
3491;SDS011;1760;52.480;13.422;2024-02-15T10:16:50;69.30;;;41.70;;
3491;SDS011;1760;52.480;13.422;2024-02-15T10:19:17;77.07;;;48.27;;
3491;SDS011;1760;52.480;13.422;2024-02-15T10:21:45;63.43;;;41.43;;
3491;SDS011;1760;52.480;13.422;2024-02-15T10:24:13;66.60;;;44.10;;
3491;SDS011;1760;52.480;13.422;2024-02-15T10:26:42;31.67;;;22.63;;
3491;SDS011;1760;52.480;13.422;2024-02-15T10:29:09;24.87;;;16.47;;
3491;SDS011;1760;52.480;13.422;2024-02-15T10:31:37;18.10;;;13.10;;
3491;SDS011;1760;52.480;13.422;2024-02-15T10:34:05;15.13;;;10.83;;
3491;SDS011;1760;52.480;13.422;2024-02-15T10:36:33;10.80;;;7.87;;
3491;SDS011;1760;52.480;13.422;2024-02-15T10:39:10;9.40;;;7.20;;
3491;SDS011;1760;52.480;13.422;2024-02-15T10:41:43;8.80;;;5.93;;
3491;SDS011;1760;52.480;13.422;2024-02-15T10:44:12;6.57;;;5.37;;
3491;SDS011;1760;52.480;13.422;2024-02-15T10:46:41;9.63;;;5.47;;
3491;SDS011;1760;52.480;13.422;2024-02-15T10:49:09;7.93;;;5.17;;
3491;SDS011;1760;52.480;13.422;2024-02-15T10:51:36;7.87;;;5.17;;
3491;SDS011;1760;52.480;13.422;2024-02-15T10:54:11;7.80;;;5.57;;
3491;SDS011;1760;52.480;13.422;2024-02-15T10:56:42;6.80;;;4.60;;
3491;SDS011;1760;52.480;13.422;2024-02-15T10:59:16;6.53;;;5.03;;
3491;SDS011;1760;52.480;13.422;2024-02-15T11:01:45;5.40;;;4.10;;
3491;SDS011;1760;52.480;13.422;2024-02-15T11:04:16;6.33;;;4.37;;
3491;SDS011;1760;52.480;13.422;2024-02-15T11:06:47;6.30;;;4.43;;
3491;SDS011;1760;52.480;13.422;2024-02-15T11:09:16;6.73;;;4.93;;
3491;SDS011;1760;52.480;13.422;2024-02-15T11:11:45;6.70;;;4.87;;
3491;SDS011;1760;52.480;13.422;2024-02-15T11:14:26;6.47;;;4.97;;
3491;SDS011;1760;52.480;13.422;2024-02-15T11:22:10;7.50;;;3.87;;
3491;SDS011;1760;52.480;13.422;2024-02-15T11:24:45;4.27;;;3.63;;
3491;SDS011;1760;52.480;13.422;2024-02-15T11:27:28;3.90;;;3.50;;
3491;SDS011;1760;52.480;13.422;2024-02-15T11:29:57;6.90;;;4.13;;
3491;SDS011;1760;52.480;13.422;2024-02-15T11:32:47;4.80;;;3.87;;
3491;SDS011;1760;52.480;13.422;2024-02-15T11:35:17;13.03;;;8.53;;
3491;SDS011;1760;52.480;13.422;2024-02-15T11:37:54;6.00;;;3.90;;
3491;SDS011;1760;52.480;13.422;2024-02-15T11:43:48;13.00;;;6.03;;
3491;SDS011;1760;52.480;13.422;2024-02-15T11:46:23;12.07;;;6.47;;
3491;SDS011;1760;52.480;13.422;2024-02-15T11:48:55;7.07;;;4.37;;
3491;SDS011;1760;52.480;13.422;2024-02-15T11:51:27;24.60;;;13.20;;
3491;SDS011;1760;52.480;13.422;2024-02-15T11:54:06;14.57;;;8.50;;
3491;SDS011;1760;52.480;13.422;2024-02-15T11:59:40;26.00;;;5.40;;
3491;SDS011;1760;52.480;13.422;2024-02-15T12:02:24;9.07;;;3.57;;
3491;SDS011;1760;52.480;13.422;2024-02-15T12:08:14;14.10;;;4.33;;
3491;SDS011;1760;52.480;13.422;2024-02-15T12:11:00;13.70;;;4.57;;
3491;SDS011;1760;52.480;13.422;2024-02-15T12:16:40;56.37;;;10.17;;
3491;SDS011;1760;52.480;13.422;2024-02-15T12:19:24;8.73;;;4.40;;
3491;SDS011;1760;52.480;13.422;2024-02-15T12:21:51;5.70;;;3.43;;
3491;SDS011;1760;52.480;13.422;2024-02-15T12:27:21;7.03;;;4.53;;
3491;SDS011;1760;52.480;13.422;2024-02-15T12:29:52;6.47;;;4.10;;
3491;SDS011;1760;52.480;13.422;2024-02-15T12:32:28;8.97;;;5.10;;
3491;SDS011;1760;52.480;13.422;2024-02-15T12:38:00;6.10;;;2.90;;
3491;SDS011;1760;52.480;13.422;2024-02-15T12:40:42;4.30;;;3.83;;
3491;SDS011;1760;52.480;13.422;2024-02-15T12:43:28;5.33;;;3.03;;
3491;SDS011;1760;52.480;13.422;2024-02-15T12:45:55;8.50;;;3.93;;
3491;SDS011;1760;52.480;13.422;2024-02-15T12:48:24;4.97;;;4.10;;
3491;SDS011;1760;52.480;13.422;2024-02-15T12:50:51;5.40;;;3.77;;
3491;SDS011;1760;52.480;13.422;2024-02-15T12:53:28;6.90;;;3.50;;
3491;SDS011;1760;52.480;13.422;2024-02-15T12:55:55;7.60;;;3.73;;
3491;SDS011;1760;52.480;13.422;2024-02-15T12:58:22;4.97;;;3.53;;
3491;SDS011;1760;52.480;13.422;2024-02-15T13:00:54;3.90;;;3.07;;
3491;SDS011;1760;52.480;13.422;2024-02-15T13:03:25;4.77;;;3.47;;
3491;SDS011;1760;52.480;13.422;2024-02-15T13:05:52;6.77;;;3.37;;
3491;SDS011;1760;52.480;13.422;2024-02-15T13:08:19;4.20;;;2.97;;
3491;SDS011;1760;52.480;13.422;2024-02-15T13:10:46;4.73;;;3.00;;
3491;SDS011;1760;52.480;13.422;2024-02-15T13:13:15;4.33;;;2.60;;
3491;SDS011;1760;52.480;13.422;2024-02-15T13:15:42;5.27;;;3.30;;
3491;SDS011;1760;52.480;13.422;2024-02-15T13:18:09;3.80;;;2.77;;
3491;SDS011;1760;52.480;13.422;2024-02-15T13:20:41;7.27;;;2.87;;
3491;SDS011;1760;52.480;13.422;2024-02-15T13:23:09;5.77;;;4.63;;
3491;SDS011;1760;52.480;13.422;2024-02-15T13:25:48;4.93;;;3.27;;
3491;SDS011;1760;52.480;13.422;2024-02-15T13:28:17;9.63;;;5.00;;
3491;SDS011;1760;52.480;13.422;2024-02-15T13:30:44;12.53;;;5.70;;
3491;SDS011;1760;52.480;13.422;2024-02-15T13:33:11;9.47;;;5.13;;
3491;SDS011;1760;52.480;13.422;2024-02-15T13:35:41;6.80;;;5.20;;
3491;SDS011;1760;52.480;13.422;2024-02-15T13:38:08;7.80;;;4.77;;
3491;SDS011;1760;52.480;13.422;2024-02-15T13:40:54;4.30;;;3.53;;
3491;SDS011;1760;52.480;13.422;2024-02-15T13:43:26;5.53;;;3.43;;
3491;SDS011;1760;52.480;13.422;2024-02-15T13:45:53;4.80;;;3.67;;
3491;SDS011;1760;52.480;13.422;2024-02-15T13:48:21;5.30;;;3.33;;
3491;SDS011;1760;52.480;13.422;2024-02-15T13:50:52;7.23;;;4.13;;
3491;SDS011;1760;52.480;13.422;2024-02-15T13:53:20;4.70;;;4.07;;
3491;SDS011;1760;52.480;13.422;2024-02-15T13:55:49;5.87;;;4.67;;
3491;SDS011;1760;52.480;13.422;2024-02-15T13:58:17;9.33;;;3.40;;
3491;SDS011;1760;52.480;13.422;2024-02-15T14:00:44;3.30;;;2.77;;
3491;SDS011;1760;52.480;13.422;2024-02-15T14:03:13;3.40;;;2.70;;
3491;SDS011;1760;52.480;13.422;2024-02-15T14:05:50;3.40;;;2.60;;
3491;SDS011;1760;52.480;13.422;2024-02-15T14:08:19;8.50;;;2.80;;
3491;SDS011;1760;52.480;13.422;2024-02-15T14:10:49;2.57;;;2.37;;
3491;SDS011;1760;52.480;13.422;2024-02-15T14:13:16;6.47;;;3.07;;
3491;SDS011;1760;52.480;13.422;2024-02-15T14:15:47;3.60;;;2.80;;
3491;SDS011;1760;52.480;13.422;2024-02-15T14:18:20;11.80;;;7.33;;
3491;SDS011;1760;52.480;13.422;2024-02-15T14:20:49;7.20;;;5.43;;
3491;SDS011;1760;52.480;13.422;2024-02-15T14:23:17;3.53;;;3.03;;
3491;SDS011;1760;52.480;13.422;2024-02-15T14:25:49;6.23;;;3.30;;
3491;SDS011;1760;52.480;13.422;2024-02-15T14:28:18;4.20;;;2.57;;
3491;SDS011;1760;52.480;13.422;2024-02-15T14:30:46;4.70;;;2.50;;
3491;SDS011;1760;52.480;13.422;2024-02-15T14:33:32;6.40;;;3.10;;
3491;SDS011;1760;52.480;13.422;2024-02-15T14:36:02;4.40;;;2.93;;
3491;SDS011;1760;52.480;13.422;2024-02-15T14:38:33;5.57;;;3.03;;
3491;SDS011;1760;52.480;13.422;2024-02-15T14:41:00;3.50;;;2.40;;
3491;SDS011;1760;52.480;13.422;2024-02-15T14:43:31;4.77;;;3.20;;
3491;SDS011;1760;52.480;13.422;2024-02-15T14:45:59;6.50;;;3.50;;
3491;SDS011;1760;52.480;13.422;2024-02-15T14:48:30;3.27;;;2.87;;
3491;SDS011;1760;52.480;13.422;2024-02-15T14:50:59;5.20;;;3.30;;
3491;SDS011;1760;52.480;13.422;2024-02-15T14:53:30;4.00;;;3.10;;
3491;SDS011;1760;52.480;13.422;2024-02-15T14:55:59;4.00;;;3.27;;
3491;SDS011;1760;52.480;13.422;2024-02-15T14:58:29;3.00;;;2.70;;
3491;SDS011;1760;52.480;13.422;2024-02-15T15:00:57;4.40;;;3.33;;
3491;SDS011;1760;52.480;13.422;2024-02-15T15:03:24;4.20;;;3.57;;
3491;SDS011;1760;52.480;13.422;2024-02-15T15:05:51;5.67;;;4.30;;
3491;SDS011;1760;52.480;13.422;2024-02-15T15:08:38;3.70;;;2.87;;
3491;SDS011;1760;52.480;13.422;2024-02-15T15:11:25;15.97;;;9.53;;
3491;SDS011;1760;52.480;13.422;2024-02-15T15:14:09;6.10;;;5.13;;
3491;SDS011;1760;52.480;13.422;2024-02-15T15:16:37;6.87;;;3.50;;
3491;SDS011;1760;52.480;13.422;2024-02-15T15:19:10;7.70;;;5.67;;
3491;SDS011;1760;52.480;13.422;2024-02-15T15:21:39;11.93;;;5.80;;
3491;SDS011;1760;52.480;13.422;2024-02-15T15:24:06;5.70;;;3.50;;
3491;SDS011;1760;52.480;13.422;2024-02-15T15:26:36;6.50;;;3.93;;
3491;SDS011;1760;52.480;13.422;2024-02-15T15:29:13;5.30;;;3.50;;